Time;durP1;ratioP1;P1;durP2;ratioP2;P2;SDS_P1;SDS_P2;PMS_P1;PMS_P2;Temp;Humidity;BMP_temperature;BMP_pressure;BME280_temperature;BME280_humidity;BME280_pressure;Samples;Min_cycle;Max_cycle;Signal;HPM_P1;HPM_P2
2023/03/18 00:01:37;;;;;;;21.83;16.35;;;;;;;13.01;74.21;100680.34;5054463;28;20041;-44
2023/03/18 00:04:03;;;;;;;24.80;16.58;;;;;;;12.94;74.31;100672.50;5054542;28;20464;-45
2023/03/18 00:06:28;;;;;;;24.27;17.23;;;;;;;12.95;74.44;100663.84;5054411;28;20083;-44
2023/03/18 00:08:54;;;;;;;23.52;16.83;;;;;;;12.95;74.32;100666.63;5054518;28;20036;-44
2023/03/18 00:11:20;;;;;;;22.35;16.25;;;;;;;12.95;74.38;100655.50;5054308;28;20028;-43
2023/03/18 00:13:47;;;;;;;25.85;17.90;;;;;;;12.95;74.61;100655.50;5053252;28;20033;-44
2023/03/18 00:16:14;;;;;;;24.05;17.23;;;;;;;12.96;74.68;100659.13;5052667;28;20021;-45
2023/03/18 00:18:41;;;;;;;25.10;16.83;;;;;;;12.93;74.81;100657.81;5052983;28;20032;-42
2023/03/18 00:21:08;;;;;;;25.92;17.25;;;;;;;12.93;75.16;100660.59;5053909;28;20151;-43
2023/03/18 00:23:33;;;;;;;23.73;16.80;;;;;;;12.98;74.88;100667.13;5053913;28;20025;-45
2023/03/18 00:26:00;;;;;;;23.88;16.30;;;;;;;12.97;75.02;100660.75;5047793;28;20051;-44
2023/03/18 00:28:26;;;;;;;24.67;16.77;;;;;;;12.92;75.21;100661.75;5053764;28;20086;-45
2023/03/18 00:30:53;;;;;;;23.98;16.98;;;;;;;12.86;75.50;100659.44;5053859;28;20029;-45
2023/03/18 00:33:19;;;;;;;23.98;17.35;;;;;;;12.84;75.67;100672.81;5053442;28;20440;-44
2023/03/18 00:35:45;;;;;;;25.33;17.00;;;;;;;12.83;75.81;100669.25;5052392;28;20063;-45
2023/03/18 00:38:19;;;;;;;24.60;17.13;;;;;;;12.83;75.77;100669.25;5053673;28;20029;-43
2023/03/18 00:41:10;;;;;;;25.50;17.52;;;;;;;12.85;75.74;100680.03;5053991;28;20036;-44
2023/03/18 00:43:44;;;;;;;23.25;16.98;;;;;;;12.86;76.02;100681.66;5053533;28;20469;-45
2023/03/18 00:46:15;;;;;;;24.30;16.85;;;;;;;12.86;75.79;100687.22;5053984;28;20545;-46
2023/03/18 00:48:41;;;;;;;24.92;16.95;;;;;;;12.84;75.94;100684.78;5053575;28;20108;-45
2023/03/18 00:51:07;;;;;;;25.15;16.85;;;;;;;12.84;76.25;100684.78;5053561;28;20036;-47
2023/03/18 00:53:32;;;;;;;24.63;16.42;;;;;;;12.81;76.41;100677.09;5053402;28;20025;-47
2023/03/18 00:55:57;;;;;;;24.83;17.80;;;;;;;12.75;76.52;100681.16;5053609;28;20384;-45
2023/03/18 00:58:23;;;;;;;24.08;17.05;;;;;;;12.76;76.63;100689.16;5052787;28;20108;-44
2023/03/18 01:00:49;;;;;;;24.58;17.15;;;;;;;12.75;76.76;100693.06;5053385;28;20061;-44
2023/03/18 01:03:14;;;;;;;23.35;16.52;;;;;;;12.74;77.06;100688.66;5051727;28;20028;-44
2023/03/18 01:05:39;;;;;;;23.60;17.02;;;;;;;12.76;76.67;100693.88;5053316;28;20111;-44
2023/03/18 01:08:05;;;;;;;22.65;16.83;;;;;;;12.76;76.85;100689.16;5053439;28;20171;-44
2023/03/18 01:10:30;;;;;;;23.45;16.90;;;;;;;12.76;77.09;100691.09;5053308;28;20033;-44
2023/03/18 01:12:56;;;;;;;22.60;16.55;;;;;;;12.79;77.04;100691.28;5053440;28;20032;-45
2023/03/18 01:15:22;;;;;;;23.40;16.50;;;;;;;12.78;77.09;100692.44;5053249;28;20036;-48
2023/03/18 01:17:49;;;;;;;24.42;17.08;;;;;;;12.82;77.16;100689.81;5053213;28;20400;-45
2023/03/18 01:20:17;;;;;;;23.88;16.42;;;;;;;12.83;77.40;100696.19;5053305;28;20057;-50
2023/03/18 01:22:43;;;;;;;23.35;16.60;;;;;;;12.83;77.38;100688.69;5049598;28;20025;-48
2023/03/18 01:25:10;;;;;;;24.73;16.98;;;;;;;12.81;77.42;100696.50;5053363;28;20032;-47
2023/03/18 01:27:36;;;;;;;25.48;17.70;;;;;;;12.78;77.76;100688.81;5053243;28;20029;-45
2023/03/18 01:30:03;;;;;;;24.42;16.42;;;;;;;12.80;78.17;100692.09;5051297;28;20032;-43
2023/03/18 01:32:29;;;;;;;24.48;16.40;;;;;;;12.79;78.26;100680.19;5052590;28;20120;-47
2023/03/18 01:34:54;;;;;;;23.38;16.90;;;;;;;12.81;78.18;100688.19;5052291;28;20111;-43
2023/03/18 01:37:20;;;;;;;23.38;17.27;;;;;;;12.81;78.44;100685.41;5052478;28;20017;-43
2023/03/18 01:39:45;;;;;;;23.60;16.27;;;;;;;12.82;79.16;100689.81;5052796;28;20037;-45
2023/03/18 01:42:11;;;;;;;23.55;17.00;;;;;;;12.84;79.91;100689.47;5051378;28;20099;-44
2023/03/18 01:44:37;;;;;;;23.83;16.98;;;;;;;12.81;80.57;100682.63;5052779;28;20021;-43
2023/03/18 01:47:02;;;;;;;25.20;18.13;;;;;;;12.77;81.50;100689.97;5051404;28;20454;-44
2023/03/18 01:49:35;;;;;;;23.83;17.05;;;;;;;12.77;82.57;100693.56;5051179;28;20037;-43
2023/03/18 01:52:17;;;;;;;25.95;18.15;;;;;;;12.77;83.72;100687.19;5052379;28;20442;-43
2023/03/18 01:54:51;;;;;;;24.95;17.48;;;;;;;12.61;85.45;100673.78;5052533;28;20029;-44
2023/03/18 01:57:17;;;;;;;;;;;;;;;12.76;82.19;100682.78;5051838;28;20040;-44
2023/03/18 01:59:45;;;;;;;23.95;18.15;;;;;;;12.59;86.13;100673.28;5051189;28;19909;-43
2023/03/18 02:02:13;;;;;;;23.88;16.95;;;;;;;12.61;86.98;100684.09;5050952;28;20021;-44
2023/03/18 02:04:46;;;;;;;26.52;17.73;;;;;;;12.55;88.17;100672.31;5052374;28;20078;-45
2023/03/18 02:07:28;;;;;;;25.77;18.10;;;;;;;12.55;88.03;100672.31;5052728;28;20121;-44
2023/03/18 02:09:55;;;;;;;25.33;17.90;;;;;;;12.46;89.85;100688.94;5051114;28;20067;-43
2023/03/18 02:12:24;;;;;;;27.13;18.42;;;;;;;12.37;90.57;100678.97;5065304;28;20476;-42
2023/03/18 02:14:51;;;;;;;24.90;19.20;;;;;;;12.32;91.35;100689.06;5072156;28;20082;-42
2023/03/18 02:17:23;;;;;;;26.63;19.05;;;;;;;12.28;91.73;100679.75;5067912;28;20031;-45
2023/03/18 02:20:07;;;;;;;25.85;19.05;;;;;;;12.30;92.51;100682.22;5072002;28;20633;-43
2023/03/18 02:22:39;;;;;;;25.02;19.15;;;;;;;12.14;93.47;100673.50;5071793;28;20028;-45
2023/03/18 02:25:42;;;;;;;27.13;19.35;;;;;;;12.26;92.63;100690.38;5071318;28;20107;-42
2023/03/18 02:28:12;;;;;;;25.67;19.30;;;;;;;12.24;94.19;100686.25;5070937;28;20035;-42
2023/03/18 02:30:44;;;;;;;26.25;20.27;;;;;;;12.20;94.30;100679.72;5071396;28;20032;-43
2023/03/18 02:33:10;;;;;;;25.80;19.10;;;;;;;12.19;94.40;100690.00;5069407;28;20040;-44
2023/03/18 02:35:37;;;;;;;26.50;19.83;;;;;;;12.16;94.94;100697.00;5071698;28;20036;-44
2023/03/18 02:38:03;;;;;;;28.23;20.05;;;;;;;12.12;95.85;100698.81;5071282;28;20037;-43
2023/03/18 02:40:35;;;;;;;25.73;20.65;;;;;;;12.05;96.43;100698.41;5069296;28;20025;-45
2023/03/18 02:43:33;;;;;;;27.13;20.77;;;;;;;12.09;95.30;100706.94;5071003;28;20070;-43
2023/03/18 02:46:25;;;;;;;27.88;20.77;;;;;;;11.93;96.83;100696.22;5070007;28;20106;-43
2023/03/18 02:48:51;;;;;;;27.35;20.73;;;;;;;12.00;97.55;100713.25;5070821;28;20048;-44
2023/03/18 02:51:17;;;;;;;27.95;21.23;;;;;;;11.94;98.00;100708.94;5071287;28;20025;-43
2023/03/18 02:53:43;;;;;;;30.05;21.17;;;;;;;11.95;98.34;100712.56;5071380;28;20472;-43
2023/03/18 02:56:10;;;;;;;28.52;20.67;;;;;;;11.97;98.84;100732.44;5071291;28;20041;-43
2023/03/18 02:58:36;;;;;;;27.23;20.85;;;;;;;11.93;99.22;100720.38;5071713;28;20178;-44
2023/03/18 03:01:03;;;;;;;27.13;21.05;;;;;;;11.90;99.26;100716.28;5071231;28;20483;-45
2023/03/18 03:03:29;;;;;;;28.17;21.88;;;;;;;11.91;99.76;100720.66;5071108;28;20029;-44
2023/03/18 03:05:55;;;;;;;29.50;21.52;;;;;;;11.93;100.00;100723.16;5071542;28;20028;-46
2023/03/18 03:08:21;;;;;;;27.77;21.73;;;;;;;11.88;100.00;100729.66;5071364;28;20063;-44
2023/03/18 03:10:47;;;;;;;26.33;21.20;;;;;;;11.87;100.00;100728.00;5071519;28;20675;-46
2023/03/18 03:13:12;;;;;;;28.77;21.40;;;;;;;11.83;100.00;100736.13;5064878;28;20037;-43
2023/03/18 03:15:38;;;;;;;26.17;21.25;;;;;;;11.80;100.00;100739.53;5070778;28;20020;-43
2023/03/18 03:18:05;;;;;;;28.00;20.98;;;;;;;11.77;100.00;100734.63;5069386;28;20082;-44
2023/03/18 03:20:34;;;;;;;28.10;21.83;;;;;;;11.77;100.00;100742.94;5070546;28;20052;-44
2023/03/18 03:23:00;;;;;;;27.73;21.33;;;;;;;11.80;100.00;100744.28;5070681;28;20032;-47
2023/03/18 03:25:26;;;;;;;28.83;21.23;;;;;;;11.77;100.00;100747.66;5069610;28;20024;-44
2023/03/18 03:27:53;;;;;;;28.25;21.10;;;;;;;11.70;100.00;100742.56;5071067;28;20078;-43
2023/03/18 03:30:19;;;;;;;28.48;21.75;;;;;;;11.68;100.00;100753.97;5071377;28;20214;-43
2023/03/18 03:32:45;;;;;;;30.45;21.85;;;;;;;11.67;100.00;100757.88;5070606;28;20043;-43
2023/03/18 03:35:15;;;;;;;28.60;21.80;;;;;;;11.66;100.00;100752.66;5071084;28;20032;-44
2023/03/18 03:37:41;;;;;;;29.85;21.98;;;;;;;11.61;100.00;100753.63;5070632;28;20044;-43
2023/03/18 03:40:07;;;;;;;29.45;22.70;;;;;;;11.64;100.00;100760.47;5069378;28;20029;-44
2023/03/18 03:42:33;;;;;;;29.27;22.60;;;;;;;11.61;100.00;100758.31;5070468;28;20029;-44
2023/03/18 03:44:58;;;;;;;29.73;21.98;;;;;;;11.65;100.00;100760.13;5071307;28;20360;-44
2023/03/18 03:47:24;;;;;;;30.88;22.70;;;;;;;11.61;100.00;100752.78;5070164;28;20029;-43
2023/03/18 03:49:51;;;;;;;30.65;23.08;;;;;;;11.62;100.00;100755.22;5070399;28;20472;-44
2023/03/18 03:52:18;;;;;;;28.90;22.30;;;;;;;11.61;100.00;100750.00;5071459;28;20033;-46
2023/03/18 03:54:44;;;;;;;28.90;22.65;;;;;;;11.59;100.00;100755.88;5074281;28;20032;-43
2023/03/18 03:57:09;;;;;;;28.50;22.00;;;;;;;11.63;100.00;100750.50;5074368;28;20044;-46
2023/03/18 03:59:35;;;;;;;31.52;22.95;;;;;;;11.65;100.00;100751.81;5072627;28;20028;-47
2023/03/18 04:02:00;;;;;;;28.00;23.02;;;;;;;11.63;100.00;100758.81;5054551;28;20426;-47
2023/03/18 04:04:26;;;;;;;27.98;22.45;;;;;;;11.64;100.00;100761.28;5054241;28;20025;-44
2023/03/18 04:06:52;;;;;;;30.45;22.77;;;;;;;11.64;100.00;100766.81;5050701;28;20427;-42
2023/03/18 04:09:17;;;;;;;29.80;22.95;;;;;;;11.66;100.00;100764.56;5050765;28;20111;-43
2023/03/18 04:11:43;;;;;;;28.40;22.00;;;;;;;11.66;100.00;100774.84;5053890;28;20359;-43
2023/03/18 04:14:08;;;;;;;30.10;22.83;;;;;;;11.61;100.00;100763.84;5053572;28;20036;-43
2023/03/18 04:16:34;;;;;;;29.88;22.63;;;;;;;11.65;100.00;100762.91;5053454;28;20028;-44
2023/03/18 04:18:59;;;;;;;31.38;22.70;;;;;;;11.66;100.00;100761.78;5053822;28;20074;-45
2023/03/18 04:21:24;;;;;;;28.70;22.67;;;;;;;11.65;100.00;100765.69;5053298;28;20467;-45
2023/03/18 04:23:50;;;;;;;29.35;22.73;;;;;;;11.66;100.00;100769.28;5053405;28;20463;-45
2023/03/18 04:26:15;;;;;;;28.70;22.38;;;;;;;11.66;100.00;100770.09;5053577;28;20044;-44
2023/03/18 04:28:41;;;;;;;29.55;23.20;;;;;;;11.65;100.00;100767.66;5052474;28;20040;-43
2023/03/18 04:31:06;;;;;;;30.95;23.05;;;;;;;11.67;100.00;100762.59;5053769;28;20479;-44
2023/03/18 04:33:31;;;;;;;32.85;24.55;;;;;;;11.66;100.00;100766.53;5052358;28;20147;-45
2023/03/18 04:35:57;;;;;;;29.02;22.13;;;;;;;11.67;100.00;100760.66;5053745;28;20388;-45
2023/03/18 04:38:23;;;;;;;30.23;23.08;;;;;;;11.66;100.00;100767.31;5053684;28;20037;-43
2023/03/18 04:40:48;;;;;;;30.48;23.17;;;;;;;11.65;100.00;100757.38;5053153;28;20028;-44
2023/03/18 04:43:14;;;;;;;31.17;22.70;;;;;;;11.66;100.00;100772.88;5053657;28;20032;-44
2023/03/18 04:45:39;;;;;;;30.40;23.17;;;;;;;11.64;100.00;100774.31;5052300;28;20044;-44
2023/03/18 04:48:04;;;;;;;32.75;24.13;;;;;;;11.60;100.00;100770.53;5064150;28;20028;-45
2023/03/18 04:50:30;;;;;;;28.38;22.92;;;;;;;11.60;100.00;100776.06;5073788;28;20028;-44
2023/03/18 04:52:56;;;;;;;30.00;23.80;;;;;;;11.58;100.00;100776.41;5073372;28;20475;-44
2023/03/18 04:55:21;;;;;;;30.00;23.73;;;;;;;11.59;100.00;100778.03;5073601;28;20479;-47
2023/03/18 04:57:47;;;;;;;30.73;22.75;;;;;;;11.61;100.00;100774.94;5073026;28;20047;-44
2023/03/18 05:00:20;;;;;;;29.67;23.35;;;;;;;11.62;100.00;100777.38;5073256;28;20024;-43
2023/03/18 05:02:46;;;;;;;28.73;22.52;;;;;;;11.61;100.00;100775.78;5071440;28;20056;-42
2023/03/18 05:05:12;;;;;;;30.63;23.52;;;;;;;11.58;100.00;100781.94;5067292;28;20527;-45
2023/03/18 05:07:38;;;;;;;31.00;24.10;;;;;;;11.60;100.00;100795.47;5072629;28;20024;-44
2023/03/18 05:10:08;;;;;;;30.88;24.50;;;;;;;11.58;100.00;100787.47;5071813;28;20025;-46
2023/03/18 05:12:35;;;;;;;28.83;23.48;;;;;;;11.54;100.00;100797.53;5073392;28;20048;-43
2023/03/18 05:15:00;;;;;;;32.88;25.17;;;;;;;11.49;100.00;100798.47;5073607;28;20051;-44
2023/03/18 05:17:26;;;;;;;29.67;22.85;;;;;;;11.48;100.00;100796.03;5072793;28;20025;-44
2023/03/18 05:19:51;;;;;;;29.52;24.67;;;;;;;11.51;100.00;100804.53;5072405;28;20059;-45
2023/03/18 05:22:18;;;;;;;29.73;23.55;;;;;;;11.52;100.00;100803.41;5072090;28;20073;-45
2023/03/18 05:24:44;;;;;;;30.63;23.75;;;;;;;11.53;100.00;100804.22;5073116;28;20033;-43
2023/03/18 05:27:10;;;;;;;31.00;23.95;;;;;;;11.54;100.00;100800.31;5072784;28;20090;-43
2023/03/18 05:29:39;;;;;;;30.70;23.33;;;;;;;11.53;100.00;100795.91;5072649;28;20460;-44
2023/03/18 05:32:06;;;;;;;32.53;23.92;;;;;;;11.53;100.00;100795.91;5072435;28;20066;-46
2023/03/18 05:34:36;;;;;;;30.40;23.30;;;;;;;11.50;100.00;100797.34;5033067;28;20459;-43
2023/03/18 05:37:07;;;;;;;30.02;22.88;;;;;;;11.54;100.00;100795.59;5032319;28;20026;-45
2023/03/18 05:39:33;;;;;;;30.13;22.92;;;;;;;11.53;100.00;100790.34;5071768;28;20543;-43
2023/03/18 05:41:59;;;;;;;29.33;23.30;;;;;;;11.47;100.00;100802.69;5072425;28;20024;-44
2023/03/18 05:44:25;;;;;;;30.30;22.88;;;;;;;11.44;100.00;100792.25;5070757;28;20044;-43
2023/03/18 05:46:51;;;;;;;29.33;23.50;;;;;;;11.45;100.00;100789.19;5072650;28;20123;-43
2023/03/18 05:49:18;;;;;;;29.63;23.05;;;;;;;11.44;100.00;100792.25;5072354;28;20081;-43
2023/03/18 05:51:43;;;;;;;29.67;22.83;;;;;;;11.38;100.00;100789.59;5072218;28;20034;-43
2023/03/18 05:54:09;;;;;;;30.65;23.38;;;;;;;11.39;100.00;100804.25;5072072;28;20036;-43
2023/03/18 05:56:35;;;;;;;29.08;22.60;;;;;;;11.36;100.00;100811.25;5071987;28;20605;-43
2023/03/18 05:59:00;;;;;;;28.45;23.30;;;;;;;11.37;100.00;100810.13;5066777;28;20059;-42
2023/03/18 06:01:26;;;;;;;27.80;22.10;;;;;;;11.37;100.00;100812.88;5070956;28;20472;-44
2023/03/18 06:03:52;;;;;;;30.70;23.15;;;;;;;11.35;100.00;100825.41;5070867;28;20370;-48
2023/03/18 06:06:18;;;;;;;29.58;23.55;;;;;;;11.31;100.00;100829.94;5071784;28;20090;-46
2023/03/18 06:08:45;;;;;;;30.40;22.83;;;;;;;11.31;100.00;100832.69;5069598;28;20032;-44
2023/03/18 06:11:11;;;;;;;28.92;22.83;;;;;;;11.27;100.00;100834.47;5071370;28;20035;-44
2023/03/18 06:13:36;;;;;;;32.15;23.02;;;;;;;11.27;100.00;100835.28;5071197;28;20036;-44
2023/03/18 06:16:02;;;;;;;29.15;22.63;;;;;;;11.27;100.00;100843.59;5070588;28;20081;-45
2023/03/18 06:18:28;;;;;;;28.75;22.50;;;;;;;11.31;100.00;100844.63;5069810;28;20028;-45
2023/03/18 06:20:53;;;;;;;28.40;21.65;;;;;;;11.28;100.00;100841.66;5071608;28;20041;-45
2023/03/18 06:23:19;;;;;;;28.00;21.70;;;;;;;11.31;100.00;100835.47;5070937;28;20037;-46
2023/03/18 06:25:45;;;;;;;28.92;21.38;;;;;;;11.33;100.00;100838.75;5071600;28;20533;-46
2023/03/18 06:28:11;;;;;;;28.85;21.52;;;;;;;11.34;100.00;100832.88;5071418;28;20548;-45
2023/03/18 06:30:37;;;;;;;29.92;21.25;;;;;;;11.33;100.00;100835.97;5070876;28;20271;-48
2023/03/18 06:33:03;;;;;;;28.75;21.17;;;;;;;11.37;100.00;100839.78;5071354;28;20195;-47
2023/03/18 06:35:30;;;;;;;28.33;21.92;;;;;;;11.38;100.00;100838.66;5071557;28;20039;-44
2023/03/18 06:37:55;;;;;;;28.92;21.02;;;;;;;11.38;100.00;100835.88;5071525;28;20537;-46
2023/03/18 06:40:21;;;;;;;27.90;20.70;;;;;;;11.37;100.00;100829.50;5071865;28;20063;-47
2023/03/18 06:42:46;;;;;;;29.23;21.75;;;;;;;11.33;100.00;100827.69;5070620;28;20394;-45
2023/03/18 06:45:12;;;;;;;28.17;21.42;;;;;;;11.33;100.00;100835.97;5070983;28;20521;-45
2023/03/18 06:47:38;;;;;;;29.70;22.27;;;;;;;11.28;100.00;100828.59;5071211;28;20036;-44
2023/03/18 06:50:04;;;;;;;28.40;21.00;;;;;;;11.30;100.00;100839.38;5071661;28;20036;-44
2023/03/18 06:52:30;;;;;;;28.60;21.73;;;;;;;11.29;100.00;100841.31;5071313;28;20090;-45
2023/03/18 06:54:55;;;;;;;28.88;21.13;;;;;;;11.30;100.00;100848.50;5065587;28;20193;-46
2023/03/18 06:57:21;;;;;;;27.45;20.48;;;;;;;11.24;100.00;100847.81;5069833;28;20067;-46
2023/03/18 06:59:46;;;;;;;25.77;20.05;;;;;;;11.30;100.00;100856.81;5070749;28;20543;-44
2023/03/18 07:02:12;;;;;;;27.35;20.98;;;;;;;11.32;100.00;100857.34;5071052;28;20040;-44
2023/03/18 07:04:38;;;;;;;26.92;20.40;;;;;;;11.31;100.00;100852.09;5069373;28;20021;-44
2023/03/18 07:07:04;;;;;;;29.90;20.98;;;;;;;11.34;100.00;100857.00;5071030;28;20039;-47
2023/03/18 07:09:32;;;;;;;28.77;20.75;;;;;;;11.35;100.00;100862.22;5070749;28;20036;-45
2023/03/18 07:11:58;;;;;;;26.38;20.77;;;;;;;11.35;100.00;100861.44;5070986;28;20547;-45
2023/03/18 07:14:23;;;;;;;28.25;21.10;;;;;;;11.38;100.00;100866.34;5071327;28;20085;-45
2023/03/18 07:16:49;;;;;;;27.52;20.63;;;;;;;11.41;100.00;100868.47;5071139;28;20475;-44
2023/03/18 07:19:14;;;;;;;25.95;20.83;;;;;;;11.42;100.00;100872.88;5070976;28;20051;-46
2023/03/18 07:21:41;;;;;;;27.27;20.00;;;;;;;11.46;100.00;100870.31;5071563;28;20068;-44
2023/03/18 07:24:08;;;;;;;26.63;20.55;;;;;;;11.47;100.00;100874.72;5071338;28;20060;-45
2023/03/18 07:26:33;;;;;;;29.73;21.10;;;;;;;11.50;100.00;100886.00;5071491;28;20111;-46
2023/03/18 07:28:58;;;;;;;28.63;20.30;;;;;;;11.56;100.00;100889.47;5074787;28;20036;-45
2023/03/18 07:31:24;;;;;;;26.05;21.50;;;;;;;11.59;100.00;100886.09;5075283;28;20383;-44
2023/03/18 07:33:50;;;;;;;28.88;20.35;;;;;;;11.61;100.00;100892.16;5048327;28;20499;-44
2023/03/18 07:36:15;;;;;;;26.67;20.63;;;;;;;11.67;100.00;100884.50;5045985;28;20017;-45
2023/03/18 07:38:41;;;;;;;27.02;20.75;;;;;;;11.70;100.00;100892.22;5044216;28;20032;-45
2023/03/18 07:41:06;;;;;;;27.17;20.05;;;;;;;11.74;100.00;100887.69;5044754;28;20072;-44
2023/03/18 07:43:31;;;;;;;27.35;20.48;;;;;;;11.69;100.00;100893.34;5046394;28;20395;-43
2023/03/18 07:45:57;;;;;;;27.02;20.23;;;;;;;11.74;100.00;100900.72;5042981;28;20033;-43
2023/03/18 07:48:23;;;;;;;26.33;19.55;;;;;;;11.80;100.00;100900.28;5048234;28;20029;-45
2023/03/18 07:50:48;;;;;;;27.42;20.15;;;;;;;11.85;100.00;100904.91;5068240;28;20069;-45
2023/03/18 07:53:13;;;;;;;27.25;20.55;;;;;;;11.85;100.00;100904.91;5074420;28;20395;-45
2023/03/18 07:55:40;;;;;;;26.98;19.65;;;;;;;11.95;100.00;100912.16;5074773;28;20029;-47
2023/03/18 07:58:06;;;;;;;25.40;19.60;;;;;;;11.96;100.00;100906.28;5074672;28;20082;-44
2023/03/18 08:00:31;;;;;;;26.42;18.60;;;;;;;12.04;100.00;100915.03;5074607;28;20099;-45
2023/03/18 08:02:57;;;;;;;26.50;20.33;;;;;;;12.04;100.00;100917.78;5075052;28;20024;-45
2023/03/18 08:05:22;;;;;;;27.50;20.27;;;;;;;12.08;100.00;100919.63;5074240;28;20078;-44
2023/03/18 08:07:48;;;;;;;25.13;19.27;;;;;;;12.11;99.54;100921.78;5074413;28;20589;-44
2023/03/18 08:10:14;;;;;;;25.88;19.77;;;;;;;12.13;99.26;100925.06;5074288;28;20054;-46
2023/03/18 08:12:41;;;;;;;28.40;20.92;;;;;;;12.15;99.84;100919.19;5074595;28;20024;-48
2023/03/18 08:15:08;;;;;;;28.35;19.73;;;;;;;12.21;99.33;100911.56;5074236;28;20029;-46
2023/03/18 08:17:33;;;;;;;26.27;20.08;;;;;;;12.23;98.45;100909.31;5074370;28;20498;-46
2023/03/18 08:19:58;;;;;;;24.80;18.65;;;;;;;12.28;98.08;100909.16;5073870;28;20131;-47
2023/03/18 08:22:24;;;;;;;24.88;18.67;;;;;;;12.29;97.13;100902.47;5074166;28;20059;-47
2023/03/18 08:24:50;;;;;;;25.88;18.30;;;;;;;12.35;97.16;100906.75;5074072;28;20058;-47
2023/03/18 08:27:16;;;;;;;23.42;17.90;;;;;;;12.37;96.72;100906.44;5040447;28;20463;-43
2023/03/18 08:29:41;;;;;;;25.35;18.55;;;;;;;12.40;96.29;100903.88;5044338;28;20043;-43
2023/03/18 08:32:07;;;;;;;30.08;18.38;;;;;;;12.44;95.97;100904.84;5051866;28;20037;-45
2023/03/18 08:34:32;;;;;;;28.23;17.75;;;;;;;12.52;96.55;100903.28;5052178;28;20562;-44
2023/03/18 08:36:58;;;;;;;25.40;18.95;;;;;;;12.57;95.91;100908.66;5045627;28;20029;-44
2023/03/18 08:39:23;;;;;;;25.15;17.65;;;;;;;12.60;95.82;100910.00;5039437;28;20158;-44
2023/03/18 08:41:49;;;;;;;26.23;18.00;;;;;;;12.62;95.31;100903.00;5031844;28;20033;-45
2023/03/18 08:44:15;;;;;;;25.80;17.63;;;;;;;12.66;94.30;100913.47;5038955;28;20075;-43
2023/03/18 08:46:40;;;;;;;25.70;17.80;;;;;;;12.75;94.38;100917.09;5044858;28;20055;-44
2023/03/18 08:49:06;;;;;;;23.15;17.10;;;;;;;12.72;93.53;100915.75;5051705;28;20033;-43
2023/03/18 08:51:32;;;;;;;22.85;14.88;;;;;;;12.95;92.49;100922.06;5051881;28;20039;-44
2023/03/18 08:53:58;;;;;;;22.42;16.20;;;;;;;13.05;92.61;100917.38;5052377;28;20041;-45
2023/03/18 08:56:23;;;;;;;23.73;15.85;;;;;;;13.16;92.01;100924.28;5051508;28;20131;-44
2023/03/18 08:58:49;;;;;;;23.65;16.50;;;;;;;13.15;91.17;100925.41;5051945;28;20037;-49
2023/03/18 09:01:16;;;;;;;22.70;16.10;;;;;;;13.15;90.81;100919.84;5052292;28;20033;-44
2023/03/18 09:03:41;;;;;;;22.42;16.40;;;;;;;13.19;90.80;100917.25;5051260;28;20040;-44
2023/03/18 09:06:07;;;;;;;22.30;15.57;;;;;;;13.32;90.46;100927.44;5050796;28;20033;-43
2023/03/18 09:08:32;;;;;;;22.88;16.92;;;;;;;13.38;90.62;100919.78;5047923;28;20472;-45
2023/03/18 09:10:58;;;;;;;22.88;15.93;;;;;;;13.43;90.42;100918.84;5069170;28;20036;-43
2023/03/18 09:13:24;;;;;;;23.15;18.20;;;;;;;13.41;90.07;100922.75;5069566;28;20033;-43
2023/03/18 09:15:50;;;;;;;22.23;16.05;;;;;;;13.40;91.15;100917.53;5069052;28;20568;-44
2023/03/18 09:18:17;;;;;;;23.13;16.42;;;;;;;13.46;89.85;100924.56;5069507;28;20028;-45
2023/03/18 09:20:44;;;;;;;22.60;16.33;;;;;;;13.54;89.73;100929.31;5069099;28;20048;-43
2023/03/18 09:23:11;;;;;;;22.75;15.60;;;;;;;13.61;88.51;100926.06;5070604;28;20031;-44
2023/03/18 09:25:37;;;;;;;21.95;15.00;;;;;;;13.66;88.04;100917.53;5036692;28;20489;-45
2023/03/18 09:28:02;;;;;;;20.58;14.60;;;;;;;13.76;88.65;100924.75;5031238;28;20040;-45
2023/03/18 09:30:28;;;;;;;21.67;15.38;;;;;;;13.81;88.44;100932.13;5046023;28;20037;-43
2023/03/18 09:32:55;;;;;;;22.40;15.93;;;;;;;13.82;88.12;100926.22;5051237;28;20261;-43
2023/03/18 09:35:21;;;;;;;23.00;15.77;;;;;;;13.80;87.89;100922.94;5051147;28;20112;-45
2023/03/18 09:37:47;;;;;;;24.08;16.85;;;;;;;13.81;88.55;100930.16;5049713;28;20041;-45
2023/03/18 09:40:25;;;;;;;23.80;16.58;;;;;;;13.82;87.23;100936.53;5050400;28;20140;-47
2023/03/18 09:43:22;;;;;;;20.40;15.30;;;;;;;13.87;87.28;100933.59;5050780;28;20143;-44
2023/03/18 09:46:08;;;;;;;20.70;14.70;;;;;;;13.93;86.42;100940.66;5050859;28;20102;-44
2023/03/18 09:49:02;;;;;;;21.95;14.57;;;;;;;13.99;87.02;100946.84;5050763;28;20438;-44
2023/03/18 09:51:54;;;;;;;21.73;14.82;;;;;;;14.09;87.64;100940.16;5049298;28;20052;-44
2023/03/18 09:54:30;;;;;;;21.77;14.73;;;;;;;14.11;86.36;100927.53;5049364;28;20107;-47
2023/03/18 09:56:56;;;;;;;21.45;15.10;;;;;;;14.15;86.04;100927.69;5050568;28;20484;-44
2023/03/18 09:59:29;;;;;;;21.77;14.27;;;;;;;14.17;85.91;100920.66;5050567;28;20043;-44
2023/03/18 10:01:56;;;;;;;20.80;14.63;;;;;;;14.30;85.40;100945.84;5050666;28;20037;-43
2023/03/18 10:04:26;;;;;;;21.05;14.60;;;;;;;14.32;85.71;100932.44;5050423;28;20112;-42
2023/03/18 10:07:13;;;;;;;21.63;14.00;;;;;;;14.42;85.33;100947.97;5050345;28;20033;-42
2023/03/18 10:09:50;;;;;;;22.60;13.30;;;;;;;14.45;83.70;100928.63;5049709;28;20037;-42
2023/03/18 10:12:38;;;;;;;21.38;13.70;;;;;;;14.55;83.69;100932.25;5050957;28;20039;-42
2023/03/18 10:15:17;;;;;;;21.67;13.38;;;;;;;14.66;83.52;100934.34;5050377;28;20056;-43
2023/03/18 10:17:50;;;;;;;20.58;13.50;;;;;;;14.74;83.83;100924.31;5050480;28;20060;-43
2023/03/18 10:20:37;;;;;;;21.48;14.63;;;;;;;14.82;83.30;100929.06;5050366;28;20037;-42
2023/03/18 10:23:22;;;;;;;23.80;15.60;;;;;;;14.91;85.22;100934.59;5049897;28;20049;-43
2023/03/18 10:25:53;;;;;;;21.67;15.18;;;;;;;14.91;82.36;100933.78;5050829;28;20036;-43
2023/03/18 10:28:22;;;;;;;21.10;13.40;;;;;;;14.99;82.32;100935.72;5050953;28;20033;-44
2023/03/18 10:30:56;;;;;;;22.83;15.18;;;;;;;15.12;83.91;100931.88;5049680;28;20048;-46
2023/03/18 10:33:53;;;;;;;24.60;15.02;;;;;;;15.26;85.44;100928.03;5049872;28;20067;-40
2023/03/18 10:36:41;;;;;;;22.73;14.93;;;;;;;15.36;84.33;100936.03;5049496;28;20574;-42
2023/03/18 10:39:14;;;;;;;22.85;14.30;;;;;;;15.44;83.03;100940.72;5049369;28;20029;-42
2023/03/18 10:41:42;;;;;;;21.02;13.27;;;;;;;15.47;79.45;100935.66;5047703;28;20036;-42
2023/03/18 10:44:44;;;;;;;22.42;14.23;;;;;;;15.46;81.85;100932.03;5049757;28;20066;-42
2023/03/18 10:47:24;;;;;;;22.33;13.82;;;;;;;15.43;80.67;100922.38;5046989;28;20036;-42
2023/03/18 10:49:58;;;;;;;21.20;14.85;;;;;;;15.46;80.14;100931.22;5049475;28;20363;-43
2023/03/18 10:52:35;;;;;;;22.77;15.38;;;;;;;15.42;80.59;100925.50;5049700;28;20463;-43
2023/03/18 10:55:01;;;;;;;20.48;13.20;;;;;;;15.44;78.54;100929.56;5047470;28;20527;-43
2023/03/18 10:57:26;;;;;;;17.85;11.45;;;;;;;15.45;76.09;100933.16;5045318;28;20064;-42
2023/03/18 10:59:52;;;;;;;19.58;11.95;;;;;;;15.37;75.10;100920.94;5049859;28;20385;-43
2023/03/18 11:02:25;;;;;;;18.10;11.65;;;;;;;15.39;75.27;100928.94;5049177;28;20074;-42
2023/03/18 11:04:53;;;;;;;17.27;10.80;;;;;;;15.45;73.40;100919.22;5053675;28;20036;-42
2023/03/18 11:07:24;;;;;;;18.63;11.38;;;;;;;15.49;74.73;100919.41;5051506;28;20085;-42
2023/03/18 11:09:50;;;;;;;18.38;10.95;;;;;;;15.57;72.82;100924.09;5050508;28;20033;-43
2023/03/18 11:12:28;;;;;;;18.33;11.40;;;;;;;15.65;73.10;100927.97;5053263;28;20040;-42